createdAt,value
2018-05-25T00:01:03.429Z,15.1
2018-05-25T00:02:10.659Z,15
2018-05-25T00:03:17.876Z,15
2018-05-25T00:04:25.121Z,15
2018-05-25T00:05:32.073Z,15
2018-05-25T00:06:39.281Z,15
2018-05-25T00:07:46.535Z,14.9
2018-05-25T00:08:53.467Z,14.9
2018-05-25T00:10:00.706Z,14.9
2018-05-25T00:11:07.901Z,14.9
2018-05-25T00:12:15.110Z,14.8
2018-05-25T00:13:22.390Z,14.8
2018-05-25T00:14:29.069Z,14.8
2018-05-25T00:15:36.029Z,14.8
2018-05-25T00:16:43.261Z,14.8
2018-05-25T00:17:50.485Z,14.8
2018-05-25T00:18:57.710Z,14.8
2018-05-25T00:20:04.917Z,14.7
2018-05-25T00:21:12.136Z,14.7
2018-05-25T00:22:19.344Z,14.7
2018-05-25T00:23:26.552Z,14.7
2018-05-25T00:24:33.766Z,14.7
2018-05-25T00:25:40.977Z,14.7
2018-05-25T00:26:48.195Z,14.6
2018-05-25T00:27:55.141Z,14.6
2018-05-25T00:29:02.375Z,14.6
2018-05-25T00:30:09.038Z,14.6
2018-05-25T00:31:16.254Z,14.6
2018-05-25T00:32:23.457Z,14.6
2018-05-25T00:33:30.675Z,14.6
2018-05-25T00:34:37.901Z,14.5
2018-05-25T00:35:45.108Z,14.5
2018-05-25T00:36:52.323Z,14.5
2018-05-25T00:37:59.274Z,14.5
2018-05-25T00:39:06.484Z,14.5
2018-05-25T00:40:13.691Z,14.4
2018-05-25T00:41:20.902Z,14.4
2018-05-25T00:42:28.113Z,14.4
2018-05-25T00:43:35.323Z,14.3
2018-05-25T00:44:42.532Z,14.3
2018-05-25T00:45:49.757Z,14.3
2018-05-25T00:46:56.975Z,14.2
2018-05-25T00:48:04.183Z,14.3
2018-05-25T00:49:11.396Z,14.2
2018-05-25T00:50:18.654Z,14.2
2018-05-25T00:51:25.869Z,14.2
2018-05-25T00:52:33.077Z,14.2
2018-05-25T00:53:40.289Z,14.1
2018-05-25T00:54:47.231Z,14.1
2018-05-25T00:55:54.437Z,14.1
2018-05-25T00:57:01.670Z,14.1
2018-05-25T00:58:08.877Z,14.1
2018-05-25T00:59:16.105Z,14.1
2018-05-25T01:00:23.545Z,14
2018-05-25T01:01:30.762Z,14
2018-05-25T01:02:37.970Z,14
2018-05-25T01:03:45.192Z,14
2018-05-25T01:04:52.424Z,14
2018-05-25T01:05:59.641Z,14
2018-05-25T01:07:06.851Z,14
2018-05-25T01:08:14.099Z,13.9
2018-05-25T01:09:21.326Z,13.9
2018-05-25T01:10:28.594Z,13.9
2018-05-25T01:11:36.038Z,13.9
2018-05-25T01:12:43.259Z,13.9
2018-05-25T01:13:50.493Z,13.9
2018-05-25T01:14:57.694Z,13.9
2018-05-25T01:16:04.950Z,13.9
2018-05-25T01:17:12.155Z,13.9
2018-05-25T01:18:19.379Z,13.9
2018-05-25T01:19:26.612Z,13.9
2018-05-25T01:20:33.844Z,13.9
2018-05-25T01:21:41.066Z,13.9
2018-05-25T01:22:48.510Z,14
2018-05-25T01:23:55.718Z,14
2018-05-25T01:25:02.954Z,14
2018-05-25T01:26:10.170Z,14
2018-05-25T01:27:17.386Z,14
2018-05-25T01:28:24.600Z,14
2018-05-25T01:29:31.828Z,14
2018-05-25T01:30:39.036Z,14
2018-05-25T01:31:45.970Z,14
2018-05-25T01:32:53.189Z,14
2018-05-25T01:34:00.406Z,14
2018-05-25T01:35:07.353Z,14
2018-05-25T01:36:14.559Z,14
2018-05-25T01:37:21.767Z,14
2018-05-25T01:38:28.993Z,14
2018-05-25T01:39:36.202Z,13.9
2018-05-25T01:40:43.413Z,13.9
2018-05-25T01:41:50.625Z,13.9
2018-05-25T01:42:57.835Z,14
2018-05-25T01:44:05.048Z,14
2018-05-25T01:45:12.470Z,14
2018-05-25T01:46:19.683Z,14
2018-05-25T01:47:26.915Z,14
2018-05-25T01:48:34.125Z,14.1
2018-05-25T01:49:41.573Z,14.1
2018-05-25T01:50:48.785Z,14.1
2018-05-25T01:51:56.031Z,14.1
2018-05-25T01:53:03.241Z,14.1
2018-05-25T01:54:10.702Z,14.1
2018-05-25T01:55:17.910Z,14.2
2018-05-25T01:56:25.123Z,14.2
2018-05-25T01:57:32.335Z,14.2
2018-05-25T01:58:39.539Z,14.2
2018-05-25T01:59:46.751Z,14.2
2018-05-25T02:00:53.985Z,14.2
2018-05-25T02:02:01.187Z,14.2
2018-05-25T02:03:08.408Z,14.2
2018-05-25T02:04:15.613Z,14.2
2018-05-25T02:05:22.561Z,14.2
2018-05-25T02:06:29.772Z,14.2
2018-05-25T02:07:36.985Z,14.2
2018-05-25T02:08:43.917Z,14.1
2018-05-25T02:09:50.842Z,14.1
2018-05-25T02:10:57.783Z,14.1
2018-05-25T02:12:04.992Z,14.1
2018-05-25T02:13:12.269Z,14.1
2018-05-25T02:14:19.488Z,14.1
2018-05-25T02:15:26.706Z,14.1
2018-05-25T02:16:33.671Z,14.1
2018-05-25T02:17:40.877Z,14
2018-05-25T02:18:48.091Z,14
2018-05-25T02:19:55.304Z,14
2018-05-25T02:21:02.528Z,14.1
2018-05-25T02:22:09.733Z,14.1
2018-05-25T02:23:16.937Z,14
2018-05-25T02:24:24.146Z,14
2018-05-25T02:25:31.358Z,14
2018-05-25T02:26:38.567Z,14
2018-05-25T02:27:45.780Z,14
2018-05-25T02:28:52.985Z,14
2018-05-25T02:30:00.189Z,14
2018-05-25T02:31:07.413Z,13.9
2018-05-25T02:32:14.610Z,13.9
2018-05-25T02:33:21.848Z,13.9
2018-05-25T02:34:29.059Z,13.9
2018-05-25T02:35:35.725Z,14
2018-05-25T02:36:42.656Z,13.9
2018-05-25T02:37:49.861Z,13.9
2018-05-25T02:38:57.076Z,13.9
2018-05-25T02:40:04.294Z,13.9
2018-05-25T02:41:11.506Z,13.9
2018-05-25T02:42:18.718Z,13.9
2018-05-25T02:43:25.949Z,13.9
2018-05-25T02:44:33.166Z,13.8
2018-05-25T02:45:40.372Z,13.8
2018-05-25T02:46:47.587Z,13.8
2018-05-25T02:47:54.793Z,13.8
2018-05-25T02:49:02.000Z,13.8
2018-05-25T02:50:09.210Z,13.8
2018-05-25T02:51:16.418Z,13.8
2018-05-25T02:52:23.622Z,13.7
2018-05-25T02:53:30.837Z,13.7
2018-05-25T02:54:38.045Z,13.7
2018-05-25T02:55:45.276Z,13.6
2018-05-25T02:56:52.493Z,13.6
2018-05-25T02:57:59.697Z,13.6
2018-05-25T02:59:06.922Z,13.6
2018-05-25T03:00:14.134Z,13.6
2018-05-25T03:01:21.301Z,13.6
2018-05-25T03:02:28.506Z,13.6
2018-05-25T03:03:35.713Z,13.6
2018-05-25T03:04:42.926Z,13.6
2018-05-25T03:05:50.361Z,13.5
2018-05-25T03:06:57.574Z,13.5
2018-05-25T03:08:04.509Z,13.5
2018-05-25T03:09:11.716Z,13.5
2018-05-25T03:10:18.928Z,13.5
2018-05-25T03:11:26.143Z,13.5
2018-05-25T03:12:33.364Z,13.4
2018-05-25T03:13:40.015Z,13.4
2018-05-25T03:14:47.223Z,13.4
2018-05-25T03:15:54.435Z,13.3
2018-05-25T03:17:01.402Z,13.3
2018-05-25T03:18:08.709Z,13.2
2018-05-25T03:19:15.915Z,13.3
2018-05-25T03:20:23.125Z,13.3
2018-05-25T03:21:30.333Z,13.3
2018-05-25T03:22:37.548Z,13.3
2018-05-25T03:23:44.764Z,13.3
2018-05-25T03:24:51.979Z,13.3
2018-05-25T03:25:59.188Z,13.3
2018-05-25T03:27:06.402Z,13.3
2018-05-25T03:28:13.609Z,13.2
2018-05-25T03:29:20.821Z,13.2
2018-05-25T03:30:28.050Z,13.2
2018-05-25T03:31:35.261Z,13.2
2018-05-25T03:32:42.481Z,13.2
2018-05-25T03:33:49.694Z,13.2
2018-05-25T03:34:56.923Z,13.2
2018-05-25T03:36:04.128Z,13.1
2018-05-25T03:37:11.342Z,13.1
2018-05-25T03:38:18.553Z,13.1
2018-05-25T03:39:25.499Z,13.1
2018-05-25T03:40:32.724Z,13.1
2018-05-25T03:41:39.931Z,13.1
2018-05-25T03:42:47.133Z,13.2
2018-05-25T03:43:54.340Z,13.2
2018-05-25T03:45:01.548Z,13.2
2018-05-25T03:46:08.774Z,13.1
2018-05-25T03:47:15.984Z,13.2
2018-05-25T03:48:22.938Z,13.2
2018-05-25T03:49:30.174Z,13.2
2018-05-25T03:50:37.384Z,13.2
2018-05-25T03:51:44.321Z,13.2
2018-05-25T03:52:51.534Z,13.2
2018-05-25T03:53:58.744Z,13.2
2018-05-25T03:55:05.959Z,13.2
2018-05-25T03:56:13.177Z,13.2
2018-05-25T03:57:20.389Z,13.2
2018-05-25T03:58:27.611Z,13.2
2018-05-25T03:59:34.537Z,13.2
2018-05-25T04:00:41.746Z,13.2
2018-05-25T04:01:48.957Z,13.2
2018-05-25T04:02:56.158Z,13.2
2018-05-25T04:04:03.377Z,13.2
2018-05-25T04:05:10.598Z,13.1
2018-05-25T04:06:17.803Z,13.1
2018-05-25T04:07:24.802Z,13.2
2018-05-25T04:08:32.007Z,13.2
2018-05-25T04:09:39.235Z,13.2
2018-05-25T04:10:46.427Z,13.2
2018-05-25T04:11:53.630Z,13.2
2018-05-25T04:13:00.840Z,13.2
2018-05-25T04:14:08.068Z,13.2
2018-05-25T04:15:14.993Z,13.2
2018-05-25T04:16:22.201Z,13.3
2018-05-25T04:17:30.604Z,13.3
2018-05-25T04:18:38.042Z,13.4
2018-05-25T04:19:45.252Z,13.4
2018-05-25T04:20:52.197Z,13.4
2018-05-25T04:21:59.409Z,13.4
2018-05-25T04:23:06.625Z,13.4
2018-05-25T04:24:13.828Z,13.5
2018-05-25T04:25:21.038Z,13.5
2018-05-25T04:26:28.244Z,13.5
2018-05-25T04:27:35.468Z,13.5
2018-05-25T04:28:42.687Z,13.5
2018-05-25T04:29:49.627Z,13.5
2018-05-25T04:30:56.839Z,13.5
2018-05-25T04:32:04.054Z,13.6
2018-05-25T04:33:10.988Z,13.6
2018-05-25T04:34:18.193Z,13.6
2018-05-25T04:35:25.407Z,13.6
2018-05-25T04:36:32.626Z,13.6
2018-05-25T04:37:39.847Z,13.6
2018-05-25T04:38:47.074Z,13.7
2018-05-25T04:39:54.294Z,13.7
2018-05-25T04:41:01.505Z,13.7
2018-05-25T04:42:08.709Z,13.7
2018-05-25T04:43:16.042Z,13.7
2018-05-25T04:44:23.396Z,13.8
2018-05-25T04:45:30.614Z,13.8
2018-05-25T04:46:37.819Z,13.9
2018-05-25T04:47:45.024Z,13.9
2018-05-25T04:48:51.960Z,14
2018-05-25T04:49:59.164Z,14
2018-05-25T04:51:06.375Z,14
2018-05-25T04:52:13.584Z,14
2018-05-25T04:53:20.787Z,14.1
2018-05-25T04:54:28.000Z,14.1
2018-05-25T04:55:34.930Z,14.1
2018-05-25T04:56:42.136Z,14.1
2018-05-25T04:57:49.347Z,14.1
2018-05-25T04:58:56.565Z,14.1
2018-05-25T05:00:03.781Z,14.1
2018-05-25T05:01:10.986Z,14.1
2018-05-25T05:02:17.927Z,14.1
2018-05-25T05:03:25.168Z,14.2
2018-05-25T05:04:32.416Z,14.2
2018-05-25T05:05:39.387Z,14.3
2018-05-25T05:06:46.595Z,14.3
2018-05-25T05:07:53.808Z,14.3
2018-05-25T05:09:01.023Z,14.3
2018-05-25T05:10:08.240Z,14.4
2018-05-25T05:11:15.147Z,14.3
2018-05-25T05:12:22.354Z,14.4
2018-05-25T05:13:29.572Z,14.3
2018-05-25T05:14:36.778Z,14.4
2018-05-25T05:15:43.986Z,14.5
2018-05-25T05:16:51.200Z,14.5
2018-05-25T05:17:58.417Z,14.6
2018-05-25T05:19:05.622Z,14.6
2018-05-25T05:20:12.562Z,14.7
2018-05-25T05:21:19.501Z,14.7
2018-05-25T05:22:26.429Z,14.8
2018-05-25T05:23:33.370Z,14.9
2018-05-25T05:24:40.592Z,15
2018-05-25T05:25:47.800Z,15.1
2018-05-25T05:26:55.025Z,15.2
2018-05-25T05:28:02.230Z,15.2
2018-05-25T05:29:09.439Z,15.3
2018-05-25T05:30:16.651Z,15.3
2018-05-25T05:31:23.310Z,15.4
2018-05-25T05:32:30.527Z,15.5
2018-05-25T05:33:37.796Z,15.6
2018-05-25T05:34:45.070Z,15.6
2018-05-25T05:35:52.305Z,15.7
2018-05-25T05:36:59.529Z,15.8
2018-05-25T05:38:06.740Z,15.9
2018-05-25T05:39:13.969Z,16.1
2018-05-25T05:40:21.189Z,16.1
2018-05-25T05:41:28.139Z,16
2018-05-25T05:42:35.356Z,16.1
2018-05-25T05:43:42.808Z,16.1
2018-05-25T05:44:50.031Z,16
2018-05-25T05:45:57.254Z,16
2018-05-25T05:47:04.482Z,16
2018-05-25T05:48:11.719Z,16.1
2018-05-25T05:49:18.929Z,16.2
2018-05-25T05:50:26.141Z,16.3
2018-05-25T05:51:33.364Z,16.4
2018-05-25T05:52:40.581Z,16.6
2018-05-25T05:53:47.794Z,16.6
2018-05-25T05:54:55.008Z,16.8
2018-05-25T05:56:02.274Z,17
2018-05-25T05:57:09.501Z,17.2
2018-05-25T05:58:16.456Z,17.4
2018-05-25T05:59:23.666Z,17.5
2018-05-25T06:00:30.882Z,17.5
2018-05-25T06:01:37.823Z,17.5
2018-05-25T06:02:45.044Z,17.6
2018-05-25T06:03:52.276Z,17.6
2018-05-25T06:04:59.491Z,17.6
2018-05-25T06:06:06.721Z,17.7
2018-05-25T06:07:13.944Z,17.8
2018-05-25T06:08:20.899Z,17.8
2018-05-25T06:09:27.842Z,18
2018-05-25T06:10:35.088Z,18
2018-05-25T06:11:42.322Z,18.1
2018-05-25T06:12:49.262Z,18.1
2018-05-25T06:13:56.482Z,18.1
2018-05-25T06:15:03.447Z,18.1
2018-05-25T06:16:10.664Z,18.1
2018-05-25T06:17:17.872Z,18.1
2018-05-25T06:18:25.092Z,18
2018-05-25T06:19:32.302Z,18.1
2018-05-25T06:20:39.519Z,18.2
2018-05-25T06:21:46.968Z,18.3
2018-05-25T06:22:54.181Z,18.3
2018-05-25T06:24:01.429Z,18.3
2018-05-25T06:25:08.643Z,18.3
2018-05-25T06:26:15.901Z,18.3
2018-05-25T06:27:23.116Z,18.3
2018-05-25T06:28:30.334Z,18.3
2018-05-25T06:29:37.542Z,18.4
2018-05-25T06:30:44.773Z,18.4
2018-05-25T06:31:51.434Z,18.5
2018-05-25T06:32:58.665Z,18.5
2018-05-25T06:34:05.874Z,18.6
2018-05-25T06:35:12.837Z,18.7
2018-05-25T06:36:20.049Z,18.8
2018-05-25T06:37:27.262Z,18.8
2018-05-25T06:38:34.471Z,18.8
2018-05-25T06:39:41.701Z,18.9
2018-05-25T06:40:48.645Z,19
2018-05-25T06:41:55.861Z,19
2018-05-25T06:43:03.088Z,19
2018-05-25T06:44:10.291Z,18.9
2018-05-25T06:45:17.498Z,18.9
2018-05-25T06:46:24.753Z,18.9
2018-05-25T06:47:31.963Z,19
2018-05-25T06:48:39.385Z,19
2018-05-25T06:49:46.601Z,19
2018-05-25T06:50:53.815Z,19
2018-05-25T06:52:01.029Z,19
2018-05-25T06:53:08.238Z,18.9
2018-05-25T06:54:15.477Z,18.9
2018-05-25T06:55:22.396Z,18.9
2018-05-25T06:56:29.607Z,18.9
2018-05-25T06:57:36.813Z,19.1
2018-05-25T06:58:43.746Z,19.5
2018-05-25T06:59:50.970Z,19.5
2018-05-25T07:00:58.182Z,19.5
2018-05-25T07:02:05.404Z,19.6
2018-05-25T07:03:12.630Z,19.4
2018-05-25T07:04:19.850Z,19.3
2018-05-25T07:05:27.083Z,19.3
2018-05-25T07:06:34.291Z,19.2
2018-05-25T07:07:41.587Z,19.2
2018-05-25T07:08:48.800Z,19.2
2018-05-25T07:09:56.054Z,19.3
2018-05-25T07:11:03.266Z,19.7
2018-05-25T07:12:10.481Z,20.1
2018-05-25T07:13:17.696Z,20.6
2018-05-25T07:14:24.650Z,20.9
2018-05-25T07:15:31.863Z,21.2
2018-05-25T07:16:38.803Z,21.1
2018-05-25T07:17:46.013Z,20.8
2018-05-25T07:18:53.233Z,20.5
2018-05-25T07:20:00.443Z,20.3
2018-05-25T07:21:07.388Z,20.3
2018-05-25T07:22:14.605Z,20.4
2018-05-25T07:23:21.823Z,20.6
2018-05-25T07:24:29.039Z,20.9
2018-05-25T07:25:36.266Z,21.2
2018-05-25T07:26:43.480Z,21.2
2018-05-25T07:27:50.793Z,21.3
2018-05-25T07:28:58.022Z,20.9
2018-05-25T07:30:04.981Z,20.9
2018-05-25T07:31:12.199Z,20.9
2018-05-25T07:32:19.411Z,21.1
2018-05-25T07:33:26.717Z,21.5
2018-05-25T07:34:34.082Z,21.8
2018-05-25T07:35:41.302Z,21.9
2018-05-25T07:36:48.515Z,21.7
2018-05-25T07:37:55.735Z,21.4
2018-05-25T07:39:02.694Z,20.8
2018-05-25T07:40:09.907Z,20.8
2018-05-25T07:41:17.142Z,20.6
2018-05-25T07:42:24.075Z,20.8
2018-05-25T07:43:31.289Z,21.3
2018-05-25T07:44:38.224Z,21.8
2018-05-25T07:45:45.442Z,22.1
2018-05-25T07:46:52.658Z,22.1
2018-05-25T07:47:59.875Z,22.1
2018-05-25T07:49:07.090Z,22.1
2018-05-25T07:50:14.306Z,21.9
2018-05-25T07:51:21.526Z,21.6
2018-05-25T07:52:28.744Z,21.3
2018-05-25T07:53:35.682Z,21.3
2018-05-25T07:54:42.897Z,21.5
2018-05-25T07:55:50.117Z,21.7
2018-05-25T07:56:57.341Z,22
2018-05-25T07:58:04.564Z,22
2018-05-25T07:59:11.517Z,21.9
2018-05-25T08:00:18.826Z,21.9
2018-05-25T08:01:25.832Z,22.1
2018-05-25T08:02:33.046Z,22.3
2018-05-25T08:03:40.261Z,22.4
2018-05-25T08:04:47.510Z,22.6
2018-05-25T08:05:54.755Z,22.6
2018-05-25T08:07:01.977Z,22.3
2018-05-25T08:08:09.194Z,22.2
2018-05-25T08:09:16.414Z,22.2
2018-05-25T08:10:23.903Z,22.3
2018-05-25T08:11:31.130Z,22.5
2018-05-25T08:12:38.341Z,22.3
2018-05-25T08:13:45.300Z,22.3
2018-05-25T08:14:52.258Z,22.4
2018-05-25T08:15:59.471Z,22.4
2018-05-25T08:17:06.691Z,22.4
2018-05-25T08:18:13.901Z,22.5
2018-05-25T08:19:21.124Z,22.4
2018-05-25T08:20:28.353Z,22.5
2018-05-25T08:21:35.572Z,22.5
2018-05-25T08:22:42.518Z,22.5
2018-05-25T08:23:49.463Z,22.5
2018-05-25T08:24:56.140Z,22.5
2018-05-25T08:26:03.345Z,22.4
2018-05-25T08:27:10.788Z,22.3
2018-05-25T08:28:18.002Z,22.3
2018-05-25T08:29:25.469Z,22.5
2018-05-25T08:30:32.678Z,22.5
2018-05-25T08:31:39.899Z,22.3
2018-05-25T08:32:47.107Z,22.3
2018-05-25T08:33:54.339Z,22.4
2018-05-25T08:35:01.570Z,22.4
2018-05-25T08:36:08.804Z,22.5
2018-05-25T08:37:16.018Z,22.5
2018-05-25T08:38:23.297Z,22.5
2018-05-25T08:39:30.222Z,22.3
2018-05-25T08:40:37.441Z,22.4
2018-05-25T08:41:44.657Z,22.6
2018-05-25T08:42:51.663Z,22.7
2018-05-25T08:43:58.607Z,22.9
2018-05-25T08:45:05.840Z,23
2018-05-25T08:46:12.774Z,23
2018-05-25T08:47:20.021Z,23.1
2018-05-25T08:48:26.955Z,23.2
2018-05-25T08:49:34.300Z,23.1
2018-05-25T08:50:41.641Z,22.9
2018-05-25T08:51:48.850Z,22.8
2018-05-25T08:52:56.079Z,22.8
2018-05-25T08:54:03.319Z,22.6
2018-05-25T08:55:10.551Z,22.3
2018-05-25T08:56:17.812Z,22.2
2018-05-25T08:57:25.026Z,22.3
2018-05-25T08:58:32.240Z,22.5
2018-05-25T08:59:39.472Z,22.9
2018-05-25T09:00:46.686Z,23.4
2018-05-25T09:01:53.622Z,23.7
2018-05-25T09:03:00.567Z,24.2
2018-05-25T09:04:07.513Z,24.5
2018-05-25T09:05:14.470Z,24.8
2018-05-25T09:06:21.903Z,25
2018-05-25T09:07:29.142Z,25
2018-05-25T09:08:36.363Z,25.2
2018-05-25T09:09:43.580Z,25.4
2018-05-25T09:10:50.806Z,25.5
2018-05-25T09:11:58.083Z,25.5
2018-05-25T09:13:05.033Z,25.2
2018-05-25T09:14:12.250Z,24.6
2018-05-25T09:15:19.467Z,24.2
2018-05-25T09:16:26.689Z,23.7
2018-05-25T09:17:33.628Z,23.4
2018-05-25T09:18:40.844Z,23.5
2018-05-25T09:19:48.063Z,23.6
2018-05-25T09:20:55.281Z,23.6
2018-05-25T09:22:02.512Z,23.5
2018-05-25T09:23:09.734Z,23.8
2018-05-25T09:24:16.961Z,24.2
2018-05-25T09:25:24.165Z,24.2
2018-05-25T09:26:31.385Z,23.9
2018-05-25T09:27:38.333Z,23.9
2018-05-25T09:28:45.554Z,24.2
2018-05-25T09:29:52.497Z,24.3
2018-05-25T09:30:59.871Z,24.3
2018-05-25T09:32:07.091Z,24.5
2018-05-25T09:33:14.315Z,24.5
2018-05-25T09:34:21.536Z,24.9
2018-05-25T09:35:28.752Z,25
2018-05-25T09:36:35.978Z,24.6
2018-05-25T09:37:43.189Z,24.7
2018-05-25T09:38:50.172Z,25.3
2018-05-25T09:39:57.385Z,25.7
2018-05-25T09:41:04.328Z,25.5
2018-05-25T09:42:11.591Z,25.4
2018-05-25T09:43:18.544Z,25.3
2018-05-25T09:44:25.795Z,25.3
2018-05-25T09:45:32.753Z,25.6
2018-05-25T09:46:39.971Z,25.9
2018-05-25T09:47:47.203Z,25.6
2018-05-25T09:48:54.162Z,25.1
2018-05-25T09:50:01.519Z,25.1
2018-05-25T09:51:08.739Z,25.2
2018-05-25T09:52:15.958Z,25.2
2018-05-25T09:53:22.895Z,25.6
2018-05-25T09:54:29.841Z,25.7
2018-05-25T09:55:37.079Z,26
2018-05-25T09:56:44.033Z,26.2
2018-05-25T09:57:51.256Z,26.1
2018-05-25T09:58:58.471Z,26.3
2018-05-25T10:00:05.696Z,26.4
2018-05-25T10:01:12.637Z,26.7
2018-05-25T10:02:19.848Z,27.1
2018-05-25T10:03:27.069Z,27.1
2018-05-25T10:04:34.288Z,26.5
2018-05-25T10:05:41.529Z,26.8
2018-05-25T10:06:48.738Z,27
2018-05-25T10:07:55.679Z,27.1
2018-05-25T10:09:02.899Z,27.2
2018-05-25T10:10:10.119Z,27.3
2018-05-25T10:11:17.335Z,27
2018-05-25T10:12:24.554Z,26.5
2018-05-25T10:13:31.504Z,26.1
2018-05-25T10:14:38.723Z,26
2018-05-25T10:15:45.941Z,25.9
2018-05-25T10:16:53.170Z,25.8
2018-05-25T10:18:00.546Z,25.9
2018-05-25T10:19:07.506Z,26.1
2018-05-25T10:20:14.739Z,26.3
2018-05-25T10:21:21.692Z,26.6
2018-05-25T10:22:28.908Z,27.3
2018-05-25T10:23:36.140Z,27.9
2018-05-25T10:24:43.360Z,28
2018-05-25T10:25:50.590Z,28
2018-05-25T10:26:57.813Z,28
2018-05-25T10:28:05.050Z,27.9
2018-05-25T10:29:12.290Z,26.7
2018-05-25T10:30:19.531Z,26.1
2018-05-25T10:31:26.982Z,25.9
2018-05-25T10:32:34.223Z,26.2
2018-05-25T10:33:41.445Z,26.8
2018-05-25T10:34:48.664Z,26.9
2018-05-25T10:35:55.953Z,27.2
2018-05-25T10:37:03.188Z,27.6
2018-05-25T10:38:10.455Z,28.1
2018-05-25T10:39:17.412Z,28.2
2018-05-25T10:40:24.882Z,27.8
2018-05-25T10:41:32.106Z,27.6
2018-05-25T10:42:39.062Z,27.4
2018-05-25T10:43:46.292Z,27.2
2018-05-25T10:44:53.545Z,26.6
2018-05-25T10:46:00.853Z,26.1
2018-05-25T10:47:08.097Z,26.4
2018-05-25T10:48:15.334Z,27.1
2018-05-25T10:49:22.575Z,27.6
2018-05-25T10:50:29.805Z,27.9
2018-05-25T10:51:36.465Z,27
2018-05-25T10:52:43.700Z,26.2
2018-05-25T10:54:05.590Z,26.1
2018-05-25T10:55:12.553Z,26.4
2018-05-25T10:56:19.786Z,25.9
2018-05-25T10:57:27.019Z,25.9
2018-05-25T10:58:34.482Z,26.4
2018-05-25T10:59:41.707Z,26.6
2018-05-25T11:00:49.166Z,27
2018-05-25T11:01:56.392Z,27.7
2018-05-25T11:03:03.624Z,28.4
2018-05-25T11:04:10.852Z,28.3
2018-05-25T11:05:18.076Z,28.7
2018-05-25T11:06:25.310Z,29
2018-05-25T11:07:32.550Z,29.2
2018-05-25T11:08:39.775Z,29.7
2018-05-25T11:09:46.996Z,30.1
2018-05-25T11:10:54.229Z,30.1
2018-05-25T11:12:01.483Z,29.7
2018-05-25T11:13:08.706Z,29.5
2018-05-25T11:14:15.926Z,29.1
2018-05-25T11:15:22.879Z,28.7
2018-05-25T11:16:30.108Z,28.4
2018-05-25T11:17:37.334Z,27.8
2018-05-25T11:18:44.572Z,27.7
2018-05-25T11:19:51.807Z,27.7
2018-05-25T11:20:59.071Z,27.6
2018-05-25T11:22:06.439Z,27.3
2018-05-25T11:23:13.698Z,27.5
2018-05-25T11:24:20.923Z,27.7
2018-05-25T11:25:28.162Z,27.2
2018-05-25T11:26:35.387Z,27
2018-05-25T11:27:42.628Z,27.1
2018-05-25T11:28:49.306Z,27.1
2018-05-25T11:29:56.537Z,27
2018-05-25T11:31:03.753Z,27.1
2018-05-25T11:32:10.987Z,27.3
2018-05-25T11:33:18.204Z,27.4
2018-05-25T11:34:25.156Z,27.5
2018-05-25T11:35:32.384Z,27.4
2018-05-25T11:36:39.656Z,27.7
2018-05-25T11:37:46.884Z,27.9
2018-05-25T11:38:54.105Z,27.9
2018-05-25T11:40:01.335Z,28
2018-05-25T11:41:08.557Z,28.5
2018-05-25T11:42:15.783Z,29.2
2018-05-25T11:43:23.008Z,29.6
2018-05-25T11:44:30.251Z,30
2018-05-25T11:45:37.222Z,30.3
2018-05-25T11:46:44.167Z,30.7
2018-05-25T11:47:51.389Z,31
2018-05-25T11:48:58.610Z,31.2
2018-05-25T11:50:05.832Z,31.1
2018-05-25T11:51:13.089Z,30.4
2018-05-25T11:52:20.399Z,29.9
2018-05-25T11:53:27.364Z,29.2
2018-05-25T11:54:34.616Z,29
2018-05-25T11:55:41.852Z,28.9
2018-05-25T11:56:49.089Z,28.5
2018-05-25T11:57:56.312Z,28.2
2018-05-25T11:59:03.577Z,27.9
2018-05-25T12:00:10.801Z,27.5
2018-05-25T12:01:18.243Z,26.9
2018-05-25T12:02:25.471Z,26.5
2018-05-25T12:03:32.925Z,26
2018-05-25T12:04:40.165Z,25.9
2018-05-25T12:05:47.418Z,26
2018-05-25T12:06:54.647Z,26.1
2018-05-25T12:08:01.874Z,26.3
2018-05-25T12:09:09.101Z,26.5
2018-05-25T12:10:16.327Z,26.6
2018-05-25T12:11:23.282Z,26.5
2018-05-25T12:12:30.447Z,26.4
2018-05-25T12:13:37.669Z,26.2
2018-05-25T12:14:45.131Z,26.2
2018-05-25T12:15:52.374Z,26.4
2018-05-25T12:16:59.595Z,26.2
2018-05-25T12:18:06.831Z,26.2
2018-05-25T12:19:14.070Z,26.5
2018-05-25T12:20:21.322Z,26.7
2018-05-25T12:21:28.770Z,27
2018-05-25T12:22:35.990Z,27.2
2018-05-25T12:23:43.169Z,27.3
2018-05-25T12:24:50.386Z,27.4
2018-05-25T12:25:57.634Z,27.6
2018-05-25T12:27:04.866Z,27.7
2018-05-25T12:28:12.210Z,27.8
2018-05-25T12:29:19.597Z,27.9
2018-05-25T12:30:26.820Z,27.9
2018-05-25T12:31:34.048Z,27.9
2018-05-25T12:32:41.287Z,27.9
2018-05-25T12:33:48.519Z,28
2018-05-25T12:34:55.756Z,28.1
2018-05-25T12:36:02.985Z,28.1
2018-05-25T12:37:10.226Z,28.1
2018-05-25T12:38:17.477Z,28
2018-05-25T12:39:24.921Z,28
2018-05-25T12:40:32.279Z,28.1
2018-05-25T12:41:39.839Z,28
2018-05-25T12:42:47.060Z,27.7
2018-05-25T12:43:54.277Z,27.4
2018-05-25T12:45:01.501Z,27.2
2018-05-25T12:46:08.717Z,27.2
2018-05-25T12:47:15.944Z,27.3
2018-05-25T12:48:23.156Z,27.4
2018-05-25T12:49:30.396Z,27.3
2018-05-25T12:50:37.639Z,27.2
2018-05-25T12:51:44.858Z,27
2018-05-25T12:52:52.077Z,27.1
2018-05-25T12:53:59.303Z,27.2
2018-05-25T12:55:06.532Z,27.1
2018-05-25T12:56:13.760Z,26.9
2018-05-25T12:57:20.980Z,26.8
2018-05-25T12:58:28.199Z,26.8
2018-05-25T12:59:35.418Z,26.9
2018-05-25T13:00:42.371Z,27.1
2018-05-25T13:01:49.313Z,27.1
2018-05-25T13:02:56.539Z,27
2018-05-25T13:04:03.756Z,26.8
2018-05-25T13:05:10.977Z,26.7
2018-05-25T13:06:18.222Z,26.8
2018-05-25T13:07:25.453Z,26.7
2018-05-25T13:08:32.402Z,26.8
2018-05-25T13:09:39.611Z,26.8
2018-05-25T13:10:46.833Z,27
2018-05-25T13:11:54.052Z,27.2
2018-05-25T13:13:01.264Z,27.5
2018-05-25T13:14:08.485Z,27.9
2018-05-25T13:15:15.707Z,28
2018-05-25T13:16:22.662Z,28.1
2018-05-25T13:17:29.613Z,27.9
2018-05-25T13:18:36.830Z,27.7
2018-05-25T13:19:43.794Z,27.5
2018-05-25T13:20:50.749Z,27.6
2018-05-25T13:21:57.988Z,27.6
2018-05-25T13:23:04.938Z,27.6
2018-05-25T13:24:12.151Z,27.6
2018-05-25T13:25:19.380Z,27.8
2018-05-25T13:26:26.606Z,28.1
2018-05-25T13:27:33.826Z,28.4
2018-05-25T13:28:41.052Z,28.6
2018-05-25T13:29:48.280Z,28.8
2018-05-25T13:30:55.228Z,28.7
2018-05-25T13:32:02.183Z,28.7
2018-05-25T13:33:09.407Z,28.5
2018-05-25T13:34:16.632Z,28.3
2018-05-25T13:35:23.881Z,28.2
2018-05-25T13:36:31.109Z,27.8
2018-05-25T13:37:38.354Z,27.6
2018-05-25T13:38:45.583Z,27.3
2018-05-25T13:39:52.800Z,27.3
2018-05-25T13:41:00.036Z,27.4
2018-05-25T13:42:07.254Z,27.9
2018-05-25T13:43:14.477Z,28.6
2018-05-25T13:44:21.692Z,29.3
2018-05-25T13:45:28.901Z,29.7
2018-05-25T13:46:35.868Z,30
2018-05-25T13:47:42.828Z,29.6
2018-05-25T13:48:50.046Z,29.6
2018-05-25T13:49:56.997Z,30
2018-05-25T13:51:03.945Z,30.5
2018-05-25T13:52:10.902Z,30.8
2018-05-25T13:53:18.128Z,31
2018-05-25T13:54:25.348Z,31.3
2018-05-25T13:55:32.575Z,31.2
2018-05-25T13:57:46.894Z,31
2018-05-25T13:58:53.849Z,31.3
2018-05-25T14:00:01.073Z,31.8
2018-05-25T14:01:08.319Z,32.1
2018-05-25T14:02:15.526Z,32.3
2018-05-25T14:03:22.753Z,32.2
2018-05-25T14:04:30.000Z,32.2
2018-05-25T14:05:37.237Z,32.2
2018-05-25T14:06:44.199Z,31.6
2018-05-25T14:07:51.419Z,31.7
2018-05-25T14:08:58.658Z,31.9
2018-05-25T14:10:05.902Z,32.2
2018-05-25T14:11:13.128Z,32.2
2018-05-25T14:12:20.346Z,32.2
2018-05-25T14:13:27.573Z,32.4
2018-05-25T14:14:34.796Z,32.2
2018-05-25T14:15:42.027Z,32.1
2018-05-25T14:16:49.252Z,32
2018-05-25T14:17:56.474Z,31.9
2018-05-25T14:19:03.700Z,31.8
2018-05-25T14:20:10.937Z,32
2018-05-25T14:21:18.153Z,32.3
2018-05-25T14:22:25.379Z,32.6
2018-05-25T14:23:32.321Z,32.7
2018-05-25T14:24:39.588Z,32.4
2018-05-25T14:25:46.835Z,32.4
2018-05-25T14:26:54.064Z,32.4
2018-05-25T14:28:01.023Z,32.3
2018-05-25T14:29:08.248Z,32.5
2018-05-25T14:30:15.466Z,32.7
2018-05-25T14:31:22.683Z,32.4
2018-05-25T14:32:29.902Z,32.4
2018-05-25T14:33:37.128Z,32.6
2018-05-25T14:34:44.361Z,32
2018-05-25T14:35:51.579Z,31.4
2018-05-25T14:36:58.802Z,31.2
2018-05-25T14:38:05.750Z,31.1
2018-05-25T14:39:12.981Z,30.9
2018-05-25T14:40:19.939Z,30.4
2018-05-25T14:41:27.277Z,30.1
2018-05-25T14:42:34.607Z,29.6
2018-05-25T14:43:41.559Z,28.6
2018-05-25T14:44:49.020Z,27.7
2018-05-25T14:45:56.242Z,27.4
2018-05-25T14:47:03.796Z,27.5
2018-05-25T14:48:11.053Z,27.3
2018-05-25T14:49:18.298Z,26.5
2018-05-25T14:50:25.522Z,25.9
2018-05-25T14:51:32.752Z,25.4
2018-05-25T14:52:40.071Z,25.5
2018-05-25T14:53:47.421Z,25.5
2018-05-25T14:54:54.640Z,25.8
2018-05-25T14:56:01.612Z,26.1
2018-05-25T14:57:08.845Z,26.4
2018-05-25T14:58:16.070Z,25.7
2018-05-25T14:59:23.305Z,25.4
2018-05-25T15:00:30.554Z,25.3
2018-05-25T15:01:37.776Z,25.5
2018-05-25T15:02:45.044Z,25.7
2018-05-25T15:03:52.516Z,25.5